sensor_id;sensor_type;location;lat;lon;timestamp;P1;durP1;ratioP1;P2;durP2;ratioP2
51286;SDS011;37364;46.974;18.916;2023-04-30T00:01:09;28.53;;;17.63;;
51286;SDS011;37364;46.974;18.916;2023-04-30T00:03:39;29.48;;;15.75;;
51286;SDS011;37364;46.974;18.916;2023-04-30T00:06:10;30.02;;;17.52;;
51286;SDS011;37364;46.974;18.916;2023-04-30T00:08:40;29.15;;;18.38;;
51286;SDS011;37364;46.974;18.916;2023-04-30T00:11:10;23.15;;;16.02;;
51286;SDS011;37364;46.974;18.916;2023-04-30T00:13:43;26.15;;;17.45;;
51286;SDS011;37364;46.974;18.916;2023-04-30T00:16:13;30.77;;;17.67;;
51286;SDS011;37364;46.974;18.916;2023-04-30T00:18:44;26.38;;;15.98;;
51286;SDS011;37364;46.974;18.916;2023-04-30T00:21:14;21.90;;;15.40;;
51286;SDS011;37364;46.974;18.916;2023-04-30T00:23:44;30.98;;;17.50;;
51286;SDS011;37364;46.974;18.916;2023-04-30T00:26:14;23.65;;;16.98;;
51286;SDS011;37364;46.974;18.916;2023-04-30T00:28:50;34.65;;;18.17;;
51286;SDS011;37364;46.974;18.916;2023-04-30T00:31:20;25.20;;;17.33;;
51286;SDS011;37364;46.974;18.916;2023-04-30T00:33:53;31.23;;;17.23;;
51286;SDS011;37364;46.974;18.916;2023-04-30T00:36:23;30.55;;;17.13;;
51286;SDS011;37364;46.974;18.916;2023-04-30T00:38:54;23.67;;;16.80;;
51286;SDS011;37364;46.974;18.916;2023-04-30T00:41:24;47.65;;;20.92;;
51286;SDS011;37364;46.974;18.916;2023-04-30T00:43:57;21.85;;;16.90;;
51286;SDS011;37364;46.974;18.916;2023-04-30T00:46:27;29.92;;;18.42;;
51286;SDS011;37364;46.974;18.916;2023-04-30T00:48:58;32.42;;;19.65;;
51286;SDS011;37364;46.974;18.916;2023-04-30T00:51:30;33.78;;;21.17;;
51286;SDS011;37364;46.974;18.916;2023-04-30T00:54:02;33.35;;;21.48;;
51286;SDS011;37364;46.974;18.916;2023-04-30T00:56:32;32.25;;;20.85;;
51286;SDS011;37364;46.974;18.916;2023-04-30T00:59:05;29.33;;;18.85;;
51286;SDS011;37364;46.974;18.916;2023-04-30T01:01:35;26.25;;;17.70;;
51286;SDS011;37364;46.974;18.916;2023-04-30T01:04:07;29.20;;;17.73;;
51286;SDS011;37364;46.974;18.916;2023-04-30T01:06:38;32.38;;;17.73;;
51286;SDS011;37364;46.974;18.916;2023-04-30T01:09:09;40.78;;;18.92;;
51286;SDS011;37364;46.974;18.916;2023-04-30T01:11:43;30.80;;;18.75;;
51286;SDS011;37364;46.974;18.916;2023-04-30T01:14:32;24.98;;;19.17;;
51286;SDS011;37364;46.974;18.916;2023-04-30T01:17:12;35.85;;;19.55;;
51286;SDS011;37364;46.974;18.916;2023-04-30T01:19:47;29.83;;;18.55;;
51286;SDS011;37364;46.974;18.916;2023-04-30T01:22:22;25.55;;;19.13;;
51286;SDS011;37364;46.974;18.916;2023-04-30T01:25:14;31.95;;;19.20;;
51286;SDS011;37364;46.974;18.916;2023-04-30T01:28:03;26.73;;;19.40;;
51286;SDS011;37364;46.974;18.916;2023-04-30T01:30:36;30.80;;;18.27;;
51286;SDS011;37364;46.974;18.916;2023-04-30T01:33:10;22.70;;;18.27;;
51286;SDS011;37364;46.974;18.916;2023-04-30T01:35:52;32.33;;;18.80;;
51286;SDS011;37364;46.974;18.916;2023-04-30T01:41:42;34.10;;;19.35;;
51286;SDS011;37364;46.974;18.916;2023-04-30T01:44:31;22.83;;;18.45;;
51286;SDS011;37364;46.974;18.916;2023-04-30T01:47:18;31.15;;;19.25;;
51286;SDS011;37364;46.974;18.916;2023-04-30T01:50:00;29.38;;;19.63;;
51286;SDS011;37364;46.974;18.916;2023-04-30T01:52:38;29.58;;;19.63;;
51286;SDS011;37364;46.974;18.916;2023-04-30T01:55:13;35.72;;;18.50;;
51286;SDS011;37364;46.974;18.916;2023-04-30T01:57:54;28.48;;;19.30;;
51286;SDS011;37364;46.974;18.916;2023-04-30T02:00:29;33.72;;;19.10;;
51286;SDS011;37364;46.974;18.916;2023-04-30T02:02:59;26.15;;;19.55;;
51286;SDS011;37364;46.974;18.916;2023-04-30T02:05:30;23.25;;;18.25;;
51286;SDS011;37364;46.974;18.916;2023-04-30T02:08:00;23.95;;;18.20;;
51286;SDS011;37364;46.974;18.916;2023-04-30T02:10:32;31.08;;;18.42;;
51286;SDS011;37364;46.974;18.916;2023-04-30T02:13:02;28.73;;;19.67;;
51286;SDS011;37364;46.974;18.916;2023-04-30T02:15:35;29.23;;;19.30;;
51286;SDS011;37364;46.974;18.916;2023-04-30T02:18:05;29.77;;;18.52;;
51286;SDS011;37364;46.974;18.916;2023-04-30T02:20:36;22.58;;;18.67;;
51286;SDS011;37364;46.974;18.916;2023-04-30T02:23:06;25.77;;;18.67;;
51286;SDS011;37364;46.974;18.916;2023-04-30T02:25:36;28.75;;;18.00;;
51286;SDS011;37364;46.974;18.916;2023-04-30T02:28:06;24.27;;;17.48;;
51286;SDS011;37364;46.974;18.916;2023-04-30T02:30:39;26.90;;;17.02;;
51286;SDS011;37364;46.974;18.916;2023-04-30T02:33:10;28.60;;;18.83;;
51286;SDS011;37364;46.974;18.916;2023-04-30T02:35:40;22.85;;;18.10;;
51286;SDS011;37364;46.974;18.916;2023-04-30T02:38:11;25.70;;;18.73;;
51286;SDS011;37364;46.974;18.916;2023-04-30T02:40:41;24.92;;;18.67;;
51286;SDS011;37364;46.974;18.916;2023-04-30T02:43:11;28.23;;;19.88;;
51286;SDS011;37364;46.974;18.916;2023-04-30T02:45:44;28.73;;;18.55;;
51286;SDS011;37364;46.974;18.916;2023-04-30T02:48:15;22.52;;;18.17;;
51286;SDS011;37364;46.974;18.916;2023-04-30T02:50:45;41.13;;;18.45;;
51286;SDS011;37364;46.974;18.916;2023-04-30T02:53:15;32.38;;;17.77;;
51286;SDS011;37364;46.974;18.916;2023-04-30T02:55:45;23.20;;;18.60;;
51286;SDS011;37364;46.974;18.916;2023-04-30T02:58:16;21.67;;;17.35;;
51286;SDS011;37364;46.974;18.916;2023-04-30T03:00:49;28.30;;;19.23;;
51286;SDS011;37364;46.974;18.916;2023-04-30T03:03:20;26.92;;;21.05;;
51286;SDS011;37364;46.974;18.916;2023-04-30T03:05:50;32.53;;;20.70;;
51286;SDS011;37364;46.974;18.916;2023-04-30T03:08:22;27.23;;;20.00;;
51286;SDS011;37364;46.974;18.916;2023-04-30T03:10:52;27.75;;;19.45;;
51286;SDS011;37364;46.974;18.916;2023-04-30T03:13:22;35.72;;;20.70;;
51286;SDS011;37364;46.974;18.916;2023-04-30T03:15:59;24.75;;;19.52;;
51286;SDS011;37364;46.974;18.916;2023-04-30T03:18:30;30.88;;;20.52;;
51286;SDS011;37364;46.974;18.916;2023-04-30T03:21:01;23.83;;;19.10;;
51286;SDS011;37364;46.974;18.916;2023-04-30T03:23:31;26.58;;;19.17;;
51286;SDS011;37364;46.974;18.916;2023-04-30T03:26:01;24.52;;;19.60;;
51286;SDS011;37364;46.974;18.916;2023-04-30T03:28:32;26.40;;;19.42;;
51286;SDS011;37364;46.974;18.916;2023-04-30T03:31:04;25.90;;;19.80;;
51286;SDS011;37364;46.974;18.916;2023-04-30T03:33:35;32.30;;;20.48;;
51286;SDS011;37364;46.974;18.916;2023-04-30T03:36:05;33.78;;;19.02;;
51286;SDS011;37364;46.974;18.916;2023-04-30T03:38:35;25.13;;;20.10;;
51286;SDS011;37364;46.974;18.916;2023-04-30T03:41:06;25.83;;;21.15;;
51286;SDS011;37364;46.974;18.916;2023-04-30T03:43:36;36.28;;;20.80;;
51286;SDS011;37364;46.974;18.916;2023-04-30T03:46:09;28.42;;;21.15;;
51286;SDS011;37364;46.974;18.916;2023-04-30T03:48:39;32.92;;;22.08;;
51286;SDS011;37364;46.974;18.916;2023-04-30T03:51:10;32.33;;;21.27;;
51286;SDS011;37364;46.974;18.916;2023-04-30T03:53:40;29.67;;;22.25;;
51286;SDS011;37364;46.974;18.916;2023-04-30T03:56:10;34.78;;;23.45;;
51286;SDS011;37364;46.974;18.916;2023-04-30T03:58:41;28.13;;;22.70;;
51286;SDS011;37364;46.974;18.916;2023-04-30T04:01:14;27.08;;;21.02;;
51286;SDS011;37364;46.974;18.916;2023-04-30T04:03:44;30.83;;;23.50;;
51286;SDS011;37364;46.974;18.916;2023-04-30T04:06:15;28.27;;;23.65;;
51286;SDS011;37364;46.974;18.916;2023-04-30T04:08:45;29.88;;;23.05;;
51286;SDS011;37364;46.974;18.916;2023-04-30T04:11:15;35.33;;;24.77;;
51286;SDS011;37364;46.974;18.916;2023-04-30T04:13:46;33.53;;;26.92;;
51286;SDS011;37364;46.974;18.916;2023-04-30T04:16:19;37.55;;;26.30;;
51286;SDS011;37364;46.974;18.916;2023-04-30T04:18:49;30.15;;;26.85;;
51286;SDS011;37364;46.974;18.916;2023-04-30T04:21:20;38.22;;;27.13;;
51286;SDS011;37364;46.974;18.916;2023-04-30T04:23:50;46.80;;;29.15;;
51286;SDS011;37364;46.974;18.916;2023-04-30T04:26:20;39.72;;;31.48;;
51286;SDS011;37364;46.974;18.916;2023-04-30T04:28:51;43.70;;;30.17;;
51286;SDS011;37364;46.974;18.916;2023-04-30T04:31:24;43.33;;;31.88;;
51286;SDS011;37364;46.974;18.916;2023-04-30T04:33:54;43.30;;;33.03;;
51286;SDS011;37364;46.974;18.916;2023-04-30T04:36:26;51.63;;;32.60;;
51286;SDS011;37364;46.974;18.916;2023-04-30T04:38:57;40.83;;;33.58;;
51286;SDS011;37364;46.974;18.916;2023-04-30T04:41:28;45.30;;;34.35;;
51286;SDS011;37364;46.974;18.916;2023-04-30T04:43:59;47.38;;;34.88;;
51286;SDS011;37364;46.974;18.916;2023-04-30T04:46:33;40.50;;;33.75;;
51286;SDS011;37364;46.974;18.916;2023-04-30T04:51:34;40.75;;;33.47;;
51286;SDS011;37364;46.974;18.916;2023-04-30T04:54:05;39.03;;;33.55;;
51286;SDS011;37364;46.974;18.916;2023-04-30T04:56:36;42.10;;;31.92;;
51286;SDS011;37364;46.974;18.916;2023-04-30T04:59:06;40.55;;;34.08;;
51286;SDS011;37364;46.974;18.916;2023-04-30T05:01:39;43.25;;;33.00;;
51286;SDS011;37364;46.974;18.916;2023-04-30T05:04:10;43.17;;;33.95;;
51286;SDS011;37364;46.974;18.916;2023-04-30T05:06:40;40.50;;;34.55;;
51286;SDS011;37364;46.974;18.916;2023-04-30T05:09:11;40.42;;;34.88;;
51286;SDS011;37364;46.974;18.916;2023-04-30T05:11:43;46.67;;;33.55;;
51286;SDS011;37364;46.974;18.916;2023-04-30T05:14:15;37.53;;;33.28;;
51286;SDS011;37364;46.974;18.916;2023-04-30T05:16:49;41.08;;;35.63;;
51286;SDS011;37364;46.974;18.916;2023-04-30T05:19:19;40.63;;;33.92;;
51286;SDS011;37364;46.974;18.916;2023-04-30T05:21:49;46.92;;;33.20;;
51286;SDS011;37364;46.974;18.916;2023-04-30T05:24:20;39.85;;;31.92;;
51286;SDS011;37364;46.974;18.916;2023-04-30T05:26:50;36.20;;;29.98;;
51286;SDS011;37364;46.974;18.916;2023-04-30T05:29:20;33.53;;;29.77;;
51286;SDS011;37364;46.974;18.916;2023-04-30T05:31:53;34.97;;;29.08;;
51286;SDS011;37364;46.974;18.916;2023-04-30T05:34:23;33.60;;;29.15;;
51286;SDS011;37364;46.974;18.916;2023-04-30T05:36:54;30.13;;;26.02;;
51286;SDS011;37364;46.974;18.916;2023-04-30T05:39:24;29.83;;;24.88;;
51286;SDS011;37364;46.974;18.916;2023-04-30T05:41:54;31.45;;;23.40;;
51286;SDS011;37364;46.974;18.916;2023-04-30T05:44:24;32.17;;;22.38;;
51286;SDS011;37364;46.974;18.916;2023-04-30T05:46:58;30.30;;;21.05;;
51286;SDS011;37364;46.974;18.916;2023-04-30T05:49:28;22.87;;;20.47;;
51286;SDS011;37364;46.974;18.916;2023-04-30T05:52:01;32.23;;;19.80;;
51286;SDS011;37364;46.974;18.916;2023-04-30T05:54:32;23.98;;;18.42;;
51286;SDS011;37364;46.974;18.916;2023-04-30T05:57:02;23.30;;;19.80;;
51286;SDS011;37364;46.974;18.916;2023-04-30T05:59:32;33.03;;;19.92;;
51286;SDS011;37364;46.974;18.916;2023-04-30T06:02:05;20.23;;;18.13;;
51286;SDS011;37364;46.974;18.916;2023-04-30T06:04:36;23.40;;;20.92;;
51286;SDS011;37364;46.974;18.916;2023-04-30T06:07:06;19.30;;;17.40;;
51286;SDS011;37364;46.974;18.916;2023-04-30T06:09:36;19.25;;;15.88;;
51286;SDS011;37364;46.974;18.916;2023-04-30T06:12:06;17.02;;;15.27;;
51286;SDS011;37364;46.974;18.916;2023-04-30T06:14:36;16.58;;;14.68;;
51286;SDS011;37364;46.974;18.916;2023-04-30T06:17:13;18.23;;;14.80;;
51286;SDS011;37364;46.974;18.916;2023-04-30T06:19:43;17.13;;;13.73;;
51286;SDS011;37364;46.974;18.916;2023-04-30T06:22:13;21.98;;;13.45;;
51286;SDS011;37364;46.974;18.916;2023-04-30T06:24:44;17.23;;;14.00;;
51286;SDS011;37364;46.974;18.916;2023-04-30T06:27:14;14.32;;;12.82;;
51286;SDS011;37364;46.974;18.916;2023-04-30T06:29:44;20.98;;;13.50;;
51286;SDS011;37364;46.974;18.916;2023-04-30T06:32:17;14.68;;;12.07;;
51286;SDS011;37364;46.974;18.916;2023-04-30T06:34:47;14.63;;;12.67;;
51286;SDS011;37364;46.974;18.916;2023-04-30T06:37:17;14.57;;;12.85;;
51286;SDS011;37364;46.974;18.916;2023-04-30T06:39:47;15.32;;;12.77;;
51286;SDS011;37364;46.974;18.916;2023-04-30T06:42:19;13.65;;;12.10;;
51286;SDS011;37364;46.974;18.916;2023-04-30T06:44:49;15.60;;;11.35;;
51286;SDS011;37364;46.974;18.916;2023-04-30T06:47:23;12.80;;;11.45;;
51286;SDS011;37364;46.974;18.916;2023-04-30T06:49:53;17.63;;;10.50;;
51286;SDS011;37364;46.974;18.916;2023-04-30T06:52:24;21.05;;;11.38;;
51286;SDS011;37364;46.974;18.916;2023-04-30T06:54:54;12.88;;;10.02;;
51286;SDS011;37364;46.974;18.916;2023-04-30T06:57:24;17.80;;;10.88;;
51286;SDS011;37364;46.974;18.916;2023-04-30T06:59:54;13.75;;;9.98;;
51286;SDS011;37364;46.974;18.916;2023-04-30T07:02:29;14.45;;;10.55;;
51286;SDS011;37364;46.974;18.916;2023-04-30T07:04:59;12.32;;;10.57;;
51286;SDS011;37364;46.974;18.916;2023-04-30T07:07:29;13.45;;;11.07;;
51286;SDS011;37364;46.974;18.916;2023-04-30T07:10:00;11.57;;;10.30;;
51286;SDS011;37364;46.974;18.916;2023-04-30T07:12:30;14.95;;;9.68;;
51286;SDS011;37364;46.974;18.916;2023-04-30T07:15:01;13.48;;;10.90;;
51286;SDS011;37364;46.974;18.916;2023-04-30T07:17:35;12.38;;;10.77;;
51286;SDS011;37364;46.974;18.916;2023-04-30T07:20:08;12.82;;;10.23;;
51286;SDS011;37364;46.974;18.916;2023-04-30T07:22:40;16.23;;;11.07;;
51286;SDS011;37364;46.974;18.916;2023-04-30T07:25:11;14.55;;;11.27;;
51286;SDS011;37364;46.974;18.916;2023-04-30T07:27:42;21.88;;;11.00;;
51286;SDS011;37364;46.974;18.916;2023-04-30T07:30:12;12.90;;;11.43;;
51286;SDS011;37364;46.974;18.916;2023-04-30T07:32:46;12.00;;;10.75;;
51286;SDS011;37364;46.974;18.916;2023-04-30T07:35:16;18.60;;;10.40;;
51286;SDS011;37364;46.974;18.916;2023-04-30T07:37:47;12.02;;;10.60;;
51286;SDS011;37364;46.974;18.916;2023-04-30T07:40:17;14.27;;;10.63;;
51286;SDS011;37364;46.974;18.916;2023-04-30T07:43:03;15.52;;;10.75;;
51286;SDS011;37364;46.974;18.916;2023-04-30T07:45:34;10.70;;;8.82;;
51286;SDS011;37364;46.974;18.916;2023-04-30T07:48:07;12.40;;;8.93;;
51286;SDS011;37364;46.974;18.916;2023-04-30T07:50:37;11.00;;;8.60;;
51286;SDS011;37364;46.974;18.916;2023-04-30T07:53:08;21.13;;;9.07;;
51286;SDS011;37364;46.974;18.916;2023-04-30T07:55:38;14.18;;;8.63;;
51286;SDS011;37364;46.974;18.916;2023-04-30T07:58:08;14.63;;;8.13;;
51286;SDS011;37364;46.974;18.916;2023-04-30T08:00:39;11.07;;;8.57;;
51286;SDS011;37364;46.974;18.916;2023-04-30T08:03:12;9.52;;;8.60;;
51286;SDS011;37364;46.974;18.916;2023-04-30T08:05:42;9.88;;;8.88;;
51286;SDS011;37364;46.974;18.916;2023-04-30T08:08:13;16.02;;;9.18;;
51286;SDS011;37364;46.974;18.916;2023-04-30T08:10:43;13.90;;;9.27;;
51286;SDS011;37364;46.974;18.916;2023-04-30T08:13:13;10.90;;;9.00;;
51286;SDS011;37364;46.974;18.916;2023-04-30T08:15:44;9.43;;;8.38;;
51286;SDS011;37364;46.974;18.916;2023-04-30T08:18:17;12.45;;;8.73;;
51286;SDS011;37364;46.974;18.916;2023-04-30T08:20:48;9.30;;;8.40;;
51286;SDS011;37364;46.974;18.916;2023-04-30T08:23:18;10.05;;;8.52;;
51286;SDS011;37364;46.974;18.916;2023-04-30T08:25:49;10.68;;;8.52;;
51286;SDS011;37364;46.974;18.916;2023-04-30T08:28:20;18.00;;;7.32;;
51286;SDS011;37364;46.974;18.916;2023-04-30T08:30:50;8.80;;;7.72;;
51286;SDS011;37364;46.974;18.916;2023-04-30T08:33:25;10.47;;;7.83;;
51286;SDS011;37364;46.974;18.916;2023-04-30T08:35:55;9.23;;;7.33;;
51286;SDS011;37364;46.974;18.916;2023-04-30T08:38:26;7.90;;;6.47;;
51286;SDS011;37364;46.974;18.916;2023-04-30T08:40:59;9.82;;;7.72;;
51286;SDS011;37364;46.974;18.916;2023-04-30T08:43:37;7.40;;;6.28;;
51286;SDS011;37364;46.974;18.916;2023-04-30T08:46:08;17.10;;;6.50;;
51286;SDS011;37364;46.974;18.916;2023-04-30T08:48:42;11.70;;;7.25;;
51286;SDS011;37364;46.974;18.916;2023-04-30T08:51:14;7.63;;;5.85;;
51286;SDS011;37364;46.974;18.916;2023-04-30T08:53:44;5.97;;;5.38;;
51286;SDS011;37364;46.974;18.916;2023-04-30T08:56:16;9.90;;;7.15;;
51286;SDS011;37364;46.974;18.916;2023-04-30T08:58:50;8.80;;;6.05;;
51286;SDS011;37364;46.974;18.916;2023-04-30T09:01:20;9.20;;;5.95;;
51286;SDS011;37364;46.974;18.916;2023-04-30T09:03:55;9.00;;;6.18;;
51286;SDS011;37364;46.974;18.916;2023-04-30T09:06:29;4.63;;;4.22;;
51286;SDS011;37364;46.974;18.916;2023-04-30T09:09:07;7.13;;;5.05;;
51286;SDS011;37364;46.974;18.916;2023-04-30T09:11:38;6.18;;;5.57;;
51286;SDS011;37364;46.974;18.916;2023-04-30T09:14:09;5.88;;;5.28;;
51286;SDS011;37364;46.974;18.916;2023-04-30T09:16:46;5.25;;;4.47;;
51286;SDS011;37364;46.974;18.916;2023-04-30T09:19:24;9.02;;;5.18;;
51286;SDS011;37364;46.974;18.916;2023-04-30T09:21:55;5.32;;;4.82;;
51286;SDS011;37364;46.974;18.916;2023-04-30T09:24:26;5.95;;;5.35;;
51286;SDS011;37364;46.974;18.916;2023-04-30T09:27:16;8.68;;;5.43;;
51286;SDS011;37364;46.974;18.916;2023-04-30T09:29:46;8.70;;;4.95;;
51286;SDS011;37364;46.974;18.916;2023-04-30T09:32:17;5.10;;;4.60;;
51286;SDS011;37364;46.974;18.916;2023-04-30T09:34:50;6.63;;;4.80;;
51286;SDS011;37364;46.974;18.916;2023-04-30T09:37:21;5.60;;;4.28;;
51286;SDS011;37364;46.974;18.916;2023-04-30T09:39:52;6.13;;;4.22;;
51286;SDS011;37364;46.974;18.916;2023-04-30T09:42:26;9.35;;;3.92;;
51286;SDS011;37364;46.974;18.916;2023-04-30T09:44:56;7.32;;;4.30;;
51286;SDS011;37364;46.974;18.916;2023-04-30T09:47:28;5.30;;;4.30;;
51286;SDS011;37364;46.974;18.916;2023-04-30T09:50:02;6.38;;;3.90;;
51286;SDS011;37364;46.974;18.916;2023-04-30T09:52:33;10.77;;;3.60;;
51286;SDS011;37364;46.974;18.916;2023-04-30T09:55:04;7.57;;;3.50;;
51286;SDS011;37364;46.974;18.916;2023-04-30T09:57:35;5.03;;;3.95;;
51286;SDS011;37364;46.974;18.916;2023-04-30T10:00:07;6.97;;;3.92;;
51286;SDS011;37364;46.974;18.916;2023-04-30T10:02:38;5.25;;;4.22;;
51286;SDS011;37364;46.974;18.916;2023-04-30T10:05:12;5.70;;;4.00;;
51286;SDS011;37364;46.974;18.916;2023-04-30T10:07:42;4.38;;;3.40;;
51286;SDS011;37364;46.974;18.916;2023-04-30T10:10:13;4.78;;;4.25;;
51286;SDS011;37364;46.974;18.916;2023-04-30T10:12:46;4.35;;;3.95;;
51286;SDS011;37364;46.974;18.916;2023-04-30T10:15:19;8.20;;;4.10;;
51286;SDS011;37364;46.974;18.916;2023-04-30T10:17:55;5.30;;;3.90;;
51286;SDS011;37364;46.974;18.916;2023-04-30T10:20:34;3.75;;;3.45;;
51286;SDS011;37364;46.974;18.916;2023-04-30T10:23:05;4.80;;;4.25;;
51286;SDS011;37364;46.974;18.916;2023-04-30T10:28:09;4.72;;;3.88;;
51286;SDS011;37364;46.974;18.916;2023-04-30T10:30:40;4.63;;;4.22;;
51286;SDS011;37364;46.974;18.916;2023-04-30T10:33:14;8.52;;;3.70;;
51286;SDS011;37364;46.974;18.916;2023-04-30T10:35:57;5.40;;;3.97;;
51286;SDS011;37364;46.974;18.916;2023-04-30T10:38:30;5.75;;;3.90;;
51286;SDS011;37364;46.974;18.916;2023-04-30T10:41:04;4.93;;;3.67;;
51286;SDS011;37364;46.974;18.916;2023-04-30T10:43:36;7.30;;;3.83;;
51286;SDS011;37364;46.974;18.916;2023-04-30T10:46:07;5.03;;;4.05;;
51286;SDS011;37364;46.974;18.916;2023-04-30T10:48:37;6.13;;;3.92;;
51286;SDS011;37364;46.974;18.916;2023-04-30T10:51:10;11.40;;;3.50;;
51286;SDS011;37364;46.974;18.916;2023-04-30T10:53:40;3.90;;;3.45;;
51286;SDS011;37364;46.974;18.916;2023-04-30T10:56:12;5.75;;;3.50;;
51286;SDS011;37364;46.974;18.916;2023-04-30T10:58:43;4.10;;;3.20;;
51286;SDS011;37364;46.974;18.916;2023-04-30T11:01:13;4.40;;;3.75;;
51286;SDS011;37364;46.974;18.916;2023-04-30T11:09:34;3.20;;;2.90;;
51286;SDS011;37364;46.974;18.916;2023-04-30T11:12:14;5.23;;;3.43;;
51286;SDS011;37364;46.974;18.916;2023-04-30T11:15:00;3.67;;;3.33;;
51286;SDS011;37364;46.974;18.916;2023-04-30T11:17:34;8.90;;;4.28;;
51286;SDS011;37364;46.974;18.916;2023-04-30T11:20:07;6.47;;;4.03;;
51286;SDS011;37364;46.974;18.916;2023-04-30T11:22:46;4.15;;;3.17;;
51286;SDS011;37364;46.974;18.916;2023-04-30T11:25:17;5.10;;;3.42;;
51286;SDS011;37364;46.974;18.916;2023-04-30T11:27:48;3.42;;;3.00;;
51286;SDS011;37364;46.974;18.916;2023-04-30T11:30:19;6.05;;;3.67;;
51286;SDS011;37364;46.974;18.916;2023-04-30T11:32:51;6.47;;;3.88;;
51286;SDS011;37364;46.974;18.916;2023-04-30T11:35:21;5.78;;;4.22;;
51286;SDS011;37364;46.974;18.916;2023-04-30T11:37:54;3.92;;;3.53;;
51286;SDS011;37364;46.974;18.916;2023-04-30T11:40:26;5.28;;;3.70;;
51286;SDS011;37364;46.974;18.916;2023-04-30T11:43:03;6.03;;;3.70;;
51286;SDS011;37364;46.974;18.916;2023-04-30T11:45:34;9.27;;;3.58;;
51286;SDS011;37364;46.974;18.916;2023-04-30T11:48:05;4.00;;;3.70;;
51286;SDS011;37364;46.974;18.916;2023-04-30T11:50:41;3.72;;;3.42;;
51286;SDS011;37364;46.974;18.916;2023-04-30T11:53:14;3.67;;;3.38;;
51286;SDS011;37364;46.974;18.916;2023-04-30T11:55:44;5.43;;;2.78;;
51286;SDS011;37364;46.974;18.916;2023-04-30T11:58:14;4.18;;;3.35;;
51286;SDS011;37364;46.974;18.916;2023-04-30T12:00:44;5.00;;;3.47;;
51286;SDS011;37364;46.974;18.916;2023-04-30T12:03:16;5.10;;;3.58;;
51286;SDS011;37364;46.974;18.916;2023-04-30T12:05:46;4.60;;;3.00;;
51286;SDS011;37364;46.974;18.916;2023-04-30T12:08:19;6.07;;;2.97;;
51286;SDS011;37364;46.974;18.916;2023-04-30T12:10:49;5.35;;;2.72;;
51286;SDS011;37364;46.974;18.916;2023-04-30T12:13:20;2.85;;;2.60;;
51286;SDS011;37364;46.974;18.916;2023-04-30T12:15:59;3.67;;;2.40;;
51286;SDS011;37364;46.974;18.916;2023-04-30T12:18:29;4.60;;;2.50;;
51286;SDS011;37364;46.974;18.916;2023-04-30T12:21:02;2.38;;;2.17;;
51286;SDS011;37364;46.974;18.916;2023-04-30T12:23:35;5.80;;;2.78;;
51286;SDS011;37364;46.974;18.916;2023-04-30T12:26:06;4.38;;;2.38;;
51286;SDS011;37364;46.974;18.916;2023-04-30T12:28:36;3.63;;;1.95;;
51286;SDS011;37364;46.974;18.916;2023-04-30T12:31:06;7.63;;;2.17;;
51286;SDS011;37364;46.974;18.916;2023-04-30T12:33:37;2.60;;;2.40;;
51286;SDS011;37364;46.974;18.916;2023-04-30T12:36:08;3.40;;;2.45;;
51286;SDS011;37364;46.974;18.916;2023-04-30T12:38:43;4.13;;;2.05;;
51286;SDS011;37364;46.974;18.916;2023-04-30T12:41:15;2.05;;;1.95;;
51286;SDS011;37364;46.974;18.916;2023-04-30T12:43:47;6.55;;;1.95;;
51286;SDS011;37364;46.974;18.916;2023-04-30T12:46:24;1.73;;;1.58;;
51286;SDS011;37364;46.974;18.916;2023-04-30T12:48:56;7.20;;;1.70;;
51286;SDS011;37364;46.974;18.916;2023-04-30T12:51:26;2.88;;;1.90;;
51286;SDS011;37364;46.974;18.916;2023-04-30T12:53:59;2.85;;;1.83;;
51286;SDS011;37364;46.974;18.916;2023-04-30T12:56:29;6.03;;;1.77;;
51286;SDS011;37364;46.974;18.916;2023-04-30T12:58:59;5.32;;;1.70;;
51286;SDS011;37364;46.974;18.916;2023-04-30T13:01:29;5.07;;;2.20;;
51286;SDS011;37364;46.974;18.916;2023-04-30T13:04:00;2.08;;;1.88;;
51286;SDS011;37364;46.974;18.916;2023-04-30T13:06:30;2.65;;;1.80;;
51286;SDS011;37364;46.974;18.916;2023-04-30T13:09:03;1.70;;;1.60;;
51286;SDS011;37364;46.974;18.916;2023-04-30T13:11:34;2.50;;;1.98;;
51286;SDS011;37364;46.974;18.916;2023-04-30T13:14:04;6.30;;;1.88;;
51286;SDS011;37364;46.974;18.916;2023-04-30T13:16:36;2.85;;;1.80;;
51286;SDS011;37364;46.974;18.916;2023-04-30T13:19:06;2.08;;;1.88;;
51286;SDS011;37364;46.974;18.916;2023-04-30T13:21:38;1.88;;;1.70;;
51286;SDS011;37364;46.974;18.916;2023-04-30T13:24:12;1.58;;;1.48;;
51286;SDS011;37364;46.974;18.916;2023-04-30T13:26:43;2.47;;;1.40;;
51286;SDS011;37364;46.974;18.916;2023-04-30T13:29:13;3.85;;;1.88;;
51286;SDS011;37364;46.974;18.916;2023-04-30T13:31:46;1.30;;;1.30;;
51286;SDS011;37364;46.974;18.916;2023-04-30T13:34:17;1.63;;;1.50;;
51286;SDS011;37364;46.974;18.916;2023-04-30T13:36:47;7.05;;;2.03;;
51286;SDS011;37364;46.974;18.916;2023-04-30T13:39:20;3.60;;;1.45;;
51286;SDS011;37364;46.974;18.916;2023-04-30T13:41:51;4.55;;;1.40;;
51286;SDS011;37364;46.974;18.916;2023-04-30T13:44:21;1.65;;;1.30;;
51286;SDS011;37364;46.974;18.916;2023-04-30T13:46:51;1.58;;;1.17;;
51286;SDS011;37364;46.974;18.916;2023-04-30T13:49:21;2.08;;;1.27;;
51286;SDS011;37364;46.974;18.916;2023-04-30T13:51:51;20.95;;;1.85;;
51286;SDS011;37364;46.974;18.916;2023-04-30T13:54:24;2.40;;;1.63;;
51286;SDS011;37364;46.974;18.916;2023-04-30T13:56:54;6.20;;;1.17;;
51286;SDS011;37364;46.974;18.916;2023-04-30T13:59:25;4.45;;;1.35;;
51286;SDS011;37364;46.974;18.916;2023-04-30T14:01:55;7.95;;;1.35;;
51286;SDS011;37364;46.974;18.916;2023-04-30T14:04:25;2.25;;;1.15;;
51286;SDS011;37364;46.974;18.916;2023-04-30T14:06:56;2.05;;;1.48;;
51286;SDS011;37364;46.974;18.916;2023-04-30T14:09:29;7.13;;;1.42;;
51286;SDS011;37364;46.974;18.916;2023-04-30T14:12:08;6.35;;;1.70;;
51286;SDS011;37364;46.974;18.916;2023-04-30T14:14:38;0.80;;;0.80;;
51286;SDS011;37364;46.974;18.916;2023-04-30T14:17:08;1.70;;;1.23;;
51286;SDS011;37364;46.974;18.916;2023-04-30T14:19:38;1.20;;;1.13;;
51286;SDS011;37364;46.974;18.916;2023-04-30T14:22:09;2.72;;;1.33;;
51286;SDS011;37364;46.974;18.916;2023-04-30T14:24:42;2.20;;;1.45;;
51286;SDS011;37364;46.974;18.916;2023-04-30T14:27:12;4.53;;;1.33;;
51286;SDS011;37364;46.974;18.916;2023-04-30T14:29:42;6.55;;;1.10;;
51286;SDS011;37364;46.974;18.916;2023-04-30T14:32:12;2.97;;;1.35;;
51286;SDS011;37364;46.974;18.916;2023-04-30T14:34:43;2.55;;;1.63;;
51286;SDS011;37364;46.974;18.916;2023-04-30T14:37:13;4.38;;;1.20;;
51286;SDS011;37364;46.974;18.916;2023-04-30T14:39:46;2.13;;;1.25;;
51286;SDS011;37364;46.974;18.916;2023-04-30T14:42:16;2.95;;;1.20;;
51286;SDS011;37364;46.974;18.916;2023-04-30T14:44:46;1.55;;;1.30;;
51286;SDS011;37364;46.974;18.916;2023-04-30T14:47:17;7.82;;;1.38;;
51286;SDS011;37364;46.974;18.916;2023-04-30T14:49:53;2.22;;;1.13;;
51286;SDS011;37364;46.974;18.916;2023-04-30T14:52:24;14.65;;;1.77;;
51286;SDS011;37364;46.974;18.916;2023-04-30T14:54:57;3.25;;;1.25;;
51286;SDS011;37364;46.974;18.916;2023-04-30T14:57:29;7.65;;;1.15;;
51286;SDS011;37364;46.974;18.916;2023-04-30T15:00:00;3.20;;;1.30;;
51286;SDS011;37364;46.974;18.916;2023-04-30T15:02:30;2.28;;;1.45;;